Tiempo atmosférico en la estación meteorológica de Villarino De Los Aires, Salamanca (700 m.)



Fecha
DESCASC
Temp. máxima en grados centígrados (hora)
DESCASC
Temp. mínima en grados centígrados (hora)
DESCASC
Temp. media en grados centígrados
DESCASC
Racha de viento máxima en m/sg (hora)
DESCASC
Velocidad máxima media en intervalos de 10 minutos(hora)
DESCASC
Precipitaciones diarias en mm
DESCASC
Precipitaciones de 00:00 a 06:00 en mm
DESCASC
Precipitaciones de 06:00 a 12:00 en mm
DESCASC
Precipitaciones de 12:00 a 18:00 en mm
DESCASC
Precipitaciones de 18:00 a 24:00 en mm
DESCASC
29-03-2020 18.7 (15:30) 2.9 (08:10) 10.8 10.28 (23:40) 6.39 (23:40) 0 0 0 0 0
28-03-2020 17.5 (17:50) 0.4 (07:10) 9 8.61 (13:30) 4.72 (15:00) 0 0 0 0 0
27-03-2020 13.9 (16:10) 0.9 (07:40) 7.4 12.5 (13:30) 7.5 (12:20) 0 0 0 0 0
26-03-2020 18.6 (18:00) 3.8 (00:00) 11.2 10.28 (23:40) 6.94 (23:40) 0 0 0 0 0
25-03-2020 19.9 (16:40) 4.8 (00:00) 12.3 13.06 (17:30) 8.06 (16:50) 0 0 0 0 0
24-03-2020 17.8 (14:50) 4.3 (00:00) 11 9.72 (15:30) 5.83 (12:50) 0 0 0 0 0
23-03-2020 17.7 (17:20) 4.1 (00:00) 10.9 9.72 (15:40) 6.11 (15:40) 0 0 0 0 0
22-03-2020 17.1 (16:20) 5.5 (05:50) 11.3 5.83 (17:40) 3.33 (17:50) 0 0 0 0 0
21-03-2020 10.2 (15:50) 6.9 (00:00) 8.5 7.22 (12:00) 4.72 (12:00) 1.6 0.4 0.4 0.4 0.4
20-03-2020 13.1 (16:30) 8.8 (00:00) 11 7.22 (14:00) 4.44 (16:40) 7.6 0 0.8 5.4 1.4
19-03-2020 17.3 (14:50) 8.3 (00:00) 12.8 5.83 (15:20) 3.89 (23:40) 0 0 0 0 0
18-03-2020 19.1 (16:40) 6.4 (00:00) 12.8 8.89 (11:30) 6.39 (15:00) 0 0 0 0 0
17-03-2020 15.9 (17:10) 4.8 (00:00) 10.3 13.61 (03:10) 7.78 (03:20) 0 0 0 0 0
16-03-2020 9.9 (18:00) 2 (00:00) 5.9 13.89 (23:10) 8.33 (23:10) 0.2 0 0 0.2 0
15-03-2020 16.4 (13:10) 2.2 (00:00) 9.3 15.83 (19:30) 10.56 (19:00) 0.8 0 0 0 0.8
14-03-2020 21.8 (16:10) 2.3 (00:00) 12 6.11 (12:50) 3.61 (21:40) 0 0 0 0 0
13-03-2020 18.7 (17:10) 6.5 (05:50) 12.6 9.72 (07:10) 5.83 (09:30) 0 0 0 0 0
12-03-2020 22.5 (16:40) 9.6 (00:00) 16.1 11.39 (23:20) 6.39 (23:20) 0 0 0 0 0
11-03-2020 24.9 (17:00) 5.8 (00:00) 15.3 6.39 (16:30) 4.17 (15:50) 0 0 0 0 0
10-03-2020 22.1 (17:40) 5.4 (00:00) 13.8 7.5 (14:40) 5.56 (05:50) 0 0 0 0 0
09-03-2020 16.3 (15:50) 4.4 (00:00) 10.3 9.72 (01:00) 6.39 (01:00) 0 0 0 0 0
08-03-2020 12.9 (18:30) 3 (00:00) 7.9 8.89 (16:00) 6.39 (22:00) 0 0 0 0 0
07-03-2020 16 (15:30) 4.3 (00:00) 10.2 7.78 (00:40) 5.56 (00:40) 0 0 0 0 0
06-03-2020 10.6 (16:50) 4.2 (00:00) 7.4 20 (10:00) 11.67 (10:00) 2 1.8 0.2 0 0
05-03-2020 12.8 (15:10) 5.8 (00:00) 9.3 23.33 (08:10) 16.39 (08:10) 4.8 0.8 2.6 0.6 0.8
04-03-2020 15.4 (15:00) 9.6 (08:20) 12.5 11.11 (01:30) 7.22 (15:10) 0.4 0.2 0 0 0.2
03-03-2020 15.8 (14:40) 5.1 (00:00) 10.5 19.17 (12:50) 13.61 (12:50) 0 0 0 0 0
02-03-2020 11.5 (04:00) 2.7 (00:00) 7.1 27.5 (04:10) 16.94 (04:10) 4.6 3.4 0.8 0.4 0
01-03-2020 15.9 (15:50) 6.5 (00:00) 11.2 19.44 (23:00) 11.39 (23:59) 19.6 0 3.2 0 16.4
29-02-2020 11.5 (13:40) 6.7 (00:00) 9.1 15.83 (15:50) 10.56 (15:20) 1.8 0 1.2 0 0.6

Gráficas

Temp. máximas Temp. mínimas Temp. medias Precipitaciones Rachas de viento máximas Velocidades máximas media en intervalos de 10 minutos

Datos horarios

Fecha y hora oficial Temperatura (ºC) Velocidad del viento (km/h) Dirección del viento Racha (km/h) Dirección de racha Precipitación (mm) Presión (hPa) Tendencia (hPa) Humedad (%)
2020-03-29 23:00:00 11.2 3 Oeste 5 Sudoeste 0 -- -- 55
2020-03-29 22:00:00 12.2 2 Oeste 8 Oeste 0 -- -- 50
2020-03-29 21:00:00 12.1 5 Sudoeste 8 Sudoeste 0 -- -- 51
2020-03-29 20:00:00 17.8 0 Calma 10 Sudeste 0 -- -- 36
2020-03-29 19:00:00 17.3 7 Sur 14 Sur 0 -- -- 37
2020-03-29 18:00:00 18.4 5 Sur 14 Este 0 -- -- 35
2020-03-29 17:00:00 17.1 4 Nordeste 13 Norte 0 -- -- 37
2020-03-29 16:00:00 18.5 6 Nordeste 22 Este 0 -- -- 37
2020-03-29 15:00:00 17.9 5 Norte 18 Noroeste 0 -- -- 37
2020-03-29 14:00:00 16.4 8 Norte 14 Norte 0 -- -- 40
2020-03-29 13:00:00 14.7 7 Norte 13 Noroeste 0 -- -- 52
2020-03-29 12:00:00 12.4 6 Nordeste 13 Nordeste 0 -- -- 60
2020-03-29 11:00:00 8.1 5 Nordeste 9 Nordeste 0 -- -- 72
2020-03-29 10:00:00 5.7 0 Calma 3 Este 0 -- -- 80
2020-03-29 09:00:00 3 0 Calma 3 Este 0 -- -- 83
2020-03-29 08:00:00 3 0 Calma 2 Este 0 -- -- 81
2020-03-29 07:00:00 4.1 3 Sur 9 Sudeste 0 -- -- 76
2020-03-29 06:00:00 4.9 0 Calma 2 Nordeste 0 -- -- 71
2020-03-29 05:00:00 5.7 0 Calma 6 Oeste 0 -- -- 68
2020-03-29 03:00:00 8.5 9 Sudoeste 18 Sudoeste 0 -- -- 59
2020-03-29 01:00:00 9.4 12 Sudoeste 18 Sur 0 -- -- 54
2020-03-29 00:00:00 8.9 4 Sudeste 10 Sur 0 -- -- 48
2020-03-28 23:00:00 10.2 6 Sudeste 10 Sudeste 0 -- -- 45
2020-03-28 22:00:00 10.8 8 Sudeste 10 Sudeste 0 -- -- 44
2020-03-28 21:00:00 11.3 6 Este 10 Este 0 -- -- 44
2020-03-28 20:00:00 12.4 4 Este 9 Este 0 -- -- 41
2020-03-28 19:00:00 14.9 5 Nordeste 15 Este 0 -- -- 37
2020-03-28 18:00:00 17 9 Este 21 Nordeste 0 -- -- 33
2020-03-28 17:00:00 16.8 9 Este 24 Este 0 -- -- 34
2020-03-28 16:00:00 16.3 10 Este 22 Sudeste 0 -- -- 36
2020-03-28 15:00:00 15.5 17 Nordeste 31 Nordeste 0 -- -- 39
2020-03-28 14:00:00 14.8 13 Este 31 Este 0 -- -- 38
2020-03-28 13:00:00 14.2 14 Este 26 Nordeste 0 -- -- 43
2020-03-28 12:00:00 12.7 15 Este 24 Nordeste 0 -- -- 43
2020-03-28 11:00:00 11.3 13 Este 23 Este 0 -- -- 53
2020-03-28 10:00:00 7 5 Nordeste 18 Este 0 -- -- 67
2020-03-28 09:00:00 4.5 10 Este 17 Este 0 -- -- 73
2020-03-28 08:00:00 1.7 6 Este 9 Este 0 -- -- 87
2020-03-28 07:00:00 0.6 2 Este 12 Sudeste 0 -- -- 87
2020-03-28 06:00:00 1 3 Este 4 Este 0 -- -- 85
2020-03-28 05:00:00 2.2 0 Calma 3 Nordeste 0 -- -- 83
2020-03-28 04:00:00 3.4 0 Calma 2 Nordeste 0 -- -- 73
2020-03-28 03:00:00 3.5 0 Calma 5 Sudoeste 0 -- -- 75
2020-03-28 02:00:00 5.2 5 Sudoeste 6 Sudoeste 0 -- -- 69
2020-03-28 01:00:00 3.6 3 Sudoeste 6 Sudoeste 0 -- -- 75
2020-03-28 00:00:00 4.7 4 Oeste 21 Sur 0 -- -- 65
2020-03-27 23:00:00 6.4 13 Sudeste 18 Sudeste 0 -- -- 55
2020-03-27 22:00:00 7.2 10 Sudeste 16 Sudeste 0 -- -- 53
2020-03-27 21:00:00 7.7 10 Sudeste 15 Sudeste 0 -- -- 51
2020-03-27 20:00:00 8.4 10 Sudeste 20 Este 0 -- -- 48
2020-03-27 19:00:00 11.8 14 Este 26 Este 0 -- -- 38
2020-03-27 18:00:00 13.2 15 Este 32 Este 0 -- -- 31
2020-03-27 17:00:00 13.7 14 Este 30 Nordeste 0 -- -- 30
2020-03-27 16:00:00 13 19 Este 37 Este 0 -- -- 33
2020-03-27 15:00:00 12.1 21 Este 37 Este 0 -- -- 35
2020-03-27 14:00:00 11.3 21 Nordeste 45 Este 0 -- -- 39
2020-03-27 13:00:00 10.4 23 Este 42 Este 0 -- -- 38
2020-03-27 12:00:00 8.5 25 Este 40 Este 0 -- -- 47
2020-03-27 11:00:00 6.7 19 Nordeste 35 Nordeste 0 -- -- 55
2020-03-27 10:00:00 4.9 21 Nordeste 37 Este 0 -- -- 58
2020-03-27 09:00:00 3.4 21 Este 37 Nordeste 0 -- -- 62
2020-03-27 08:00:00 1.2 13 Nordeste 27 Este 0 -- -- 70
2020-03-27 07:00:00 1.3 17 Este 37 Este 0 -- -- 68
2020-03-27 06:00:00 2.4 20 Este 34 Nordeste 0 -- -- 64
2020-03-27 05:00:00 2.7 18 Este 36 Este 0 -- -- 68
2020-03-27 04:00:00 3.4 22 Este 36 Este 0 -- -- 68
2020-03-27 03:00:00 3.8 13 Este 32 Este 0 -- -- 70
2020-03-27 02:00:00 4.6 18 Este 36 Este 0 -- -- 69
2020-03-27 01:00:00 5.4 19 Este 32 Este 0 -- -- 67
2020-03-27 00:00:00 6.9 23 Este 37 Este 0 -- -- 63
2020-03-26 23:00:00 7.9 7 Norte 13 Nordeste 0 -- -- 48
2020-03-26 22:00:00 9.4 7 Oeste 23 Oeste 0 -- -- 42
2020-03-26 21:00:00 11.8 15 Oeste 23 Oeste 0 -- -- 35
2020-03-26 20:00:00 13.3 14 Oeste 21 Oeste 0 -- -- 29
2020-03-26 19:00:00 17.2 14 Oeste 23 Oeste 0 -- -- 24
2020-03-26 18:00:00 18.6 7 Oeste 23 Oeste 0 -- -- 26
2020-03-26 17:00:00 18.4 9 Oeste 22 Oeste 0 -- -- 30
2020-03-26 16:00:00 18 10 Noroeste 20 Noroeste 0 -- -- 34
2020-03-26 15:00:00 17.3 9 Sudoeste 26 Oeste 0 -- -- 39
2020-03-26 14:00:00 16.2 7 Oeste 13 Oeste 0 -- -- 41
2020-03-26 13:00:00 14.7 7 Oeste 17 Oeste 0 -- -- 48
2020-03-26 12:00:00 13 8 Norte 13 Noroeste 0 -- -- 49
2020-03-26 11:00:00 11.2 5 Noroeste 10 Noroeste 0 -- -- 61
2020-03-26 10:00:00 8.5 3 Norte 5 Nordeste 0 -- -- 75
2020-03-26 09:00:00 6.9 2 Oeste 4 Este 0 -- -- 87
2020-03-26 08:00:00 4.6 2 Este 4 Sudeste 0 -- -- 93
2020-03-26 07:00:00 5 4 Oeste 12 Sudoeste 0 -- -- 86
2020-03-26 06:00:00 6.2 9 Sudoeste 14 Sudoeste 0 -- -- 85
2020-03-26 05:00:00 6.8 10 Sudoeste 13 Sudoeste 0 -- -- 83
2020-03-26 04:00:00 7.2 9 Sudoeste 14 Sur 0 -- -- 82
2020-03-26 03:00:00 8.2 8 Sudoeste 12 Sur 0 -- -- 78
2020-03-26 02:00:00 8.7 10 Sur 13 Sur 0 -- -- 76
2020-03-26 01:00:00 10.5 0 Calma 7 Noroeste 0 -- -- 67
2020-03-26 00:00:00 11.6 6 Noroeste 21 Noroeste 0 -- -- 66
2020-03-25 23:00:00 12.5 10 Oeste 20 Noroeste 0 -- -- 64
2020-03-25 22:00:00 13.8 14 Oeste 36 Oeste 0 -- -- 59
2020-03-25 21:00:00 14.4 21 Oeste 32 Oeste 0 -- -- 59
2020-03-25 20:00:00 15.5 19 Oeste 37 Oeste 0 -- -- 47
2020-03-25 19:00:00 17.7 26 Oeste 41 Oeste 0 -- -- 43
2020-03-25 18:00:00 19.3 26 Oeste 47 Oeste 0 -- -- 38
2020-03-25 17:00:00 19.3 28 Oeste 41 Oeste 0 -- -- 39
2020-03-25 16:00:00 19.2 26 Oeste 40 Oeste 0 -- -- 43
2020-03-25 15:00:00 18 24 Oeste 38 Oeste 0 -- -- 47
2020-03-25 14:00:00 17.8 18 Noroeste 31 Noroeste 0 -- -- 48
2020-03-25 13:00:00 17.8 12 Oeste 25 Oeste 0 -- -- 49
2020-03-25 12:00:00 15.8 14 Oeste 20 Oeste 0 -- -- 59
2020-03-25 11:00:00 13.2 10 Oeste 16 Oeste 0 -- -- 65
2020-03-25 10:00:00 9.8 5 Oeste 9 Oeste 0 -- -- 78
2020-03-25 09:00:00 7.8 0 Calma 4 Nordeste 0 -- -- 85
2020-03-25 08:00:00 6 0 Calma 6 Sudeste 0 -- -- 88
2020-03-25 07:00:00 5.2 3 Sur 4 Sudeste 0 -- -- 90
2020-03-25 06:00:00 6.2 5 Sudeste 8 Este 0 -- -- 87
2020-03-25 05:00:00 5.3 5 Sudeste 7 Sudeste 0 -- -- 88
2020-03-25 04:00:00 6.3 0 Calma 4 Noroeste 0 -- -- 82
2020-03-25 03:00:00 7.2 0 Calma 4 Oeste 0 -- -- 78
2020-03-25 02:00:00 7.6 0 Calma 3 Norte 0 -- -- 77
2020-03-25 01:00:00 8.7 0 Calma 11 Este 0 -- -- 75
2020-03-25 00:00:00 9.5 10 Este 15 Este 0 -- -- 69
2020-03-24 23:00:00 9.8 9 Este 13 Sudeste 0 -- -- 69
2020-03-24 22:00:00 10.4 9 Este 15 Este 0 -- -- 66
2020-03-24 21:00:00 11.4 10 Este 15 Nordeste 0 -- -- 64
2020-03-24 20:00:00 12.5 9 Este 18 Nordeste 0 -- -- 59
2020-03-24 19:00:00 16.4 9 Nordeste 24 Nordeste 0 -- -- 47
2020-03-24 18:00:00 17 14 Nordeste 31 Nordeste 0 -- -- 46
2020-03-24 17:00:00 16.5 15 Nordeste 30 Este 0 -- -- 48
2020-03-24 16:00:00 17.1 14 Nordeste 35 Nordeste 0 -- -- 47
2020-03-24 15:00:00 16.5 19 Nordeste 32 Este 0 -- -- 48
2020-03-24 14:00:00 16.2 19 Este 34 Este 0 -- -- 53
2020-03-24 13:00:00 15.3 20 Nordeste 32 Este 0 -- -- 58
2020-03-24 12:00:00 13.7 17 Este 28 Nordeste 0 -- -- 65
2020-03-24 11:00:00 12.1 17 Este 28 Este 0 -- -- 69
2020-03-24 10:00:00 10.2 12 Nordeste 22 Este 0 -- -- 79
2020-03-24 09:00:00 7.3 7 Nordeste 13 Nordeste 0 -- -- 88
2020-03-24 08:00:00 5.3 6 Este 19 Este 0 -- -- 94
2020-03-24 07:00:00 4.4 10 Este 14 Este 0 -- -- 94
2020-03-24 06:00:00 4.8 7 Este 13 Este 0 -- -- 94
2020-03-24 05:00:00 5.3 8 Este 15 Este 0 -- -- 91
2020-03-24 04:00:00 5.5 11 Este 15 Este 0 -- -- 92
2020-03-24 03:00:00 6.1 10 Este 15 Este 0 -- -- 87
2020-03-24 02:00:00 6.4 9 Este 15 Este 0 -- -- 86
2020-03-24 01:00:00 8 8 Este 19 Este 0 -- -- 80
2020-03-24 00:00:00 8.1 10 Sudeste 33 Sudeste 0 -- -- 82
2020-03-23 23:00:00 8.6 10 Este 20 Este 0 -- -- 79
2020-03-23 22:00:00 9.3 13 Este 19 Este 0 -- -- 77
2020-03-23 21:00:00 9.7 13 Sudeste 18 Sudeste 0 -- -- 77
2020-03-23 20:00:00 11.4 10 Este 27 Sudeste 0 -- -- 68
2020-03-23 19:00:00 11.4 18 Sudeste 32 Sudeste 0 -- -- 74
2020-03-23 18:00:00 16.8 15 Nordeste 29 Este 0 -- -- 48
2020-03-23 17:00:00 16.9 15 Nordeste 29 Este 0 -- -- 48
2020-03-23 16:00:00 15.5 21 Este 35 Nordeste 0 -- -- 50
2020-03-23 15:00:00 15.7 15 Este 30 Nordeste 0 -- -- 52
2020-03-23 14:00:00 14.6 15 Nordeste 28 Este 0 -- -- 59
2020-03-23 13:00:00 14.3 14 Este 27 Este 0 -- -- 63
2020-03-23 12:00:00 13.3 14 Nordeste 25 Nordeste 0 -- -- 67
2020-03-23 11:00:00 12 13 Este 25 Este 0 -- -- 70
2020-03-23 10:00:00 9.8 13 Nordeste 20 Nordeste 0 -- -- 81
2020-03-23 09:00:00 6.8 13 Nordeste 21 Nordeste 0 -- -- 91
2020-03-23 08:00:00 4.6 6 Este 10 Este 0 -- -- 96
2020-03-23 07:00:00 4.6 3 Nordeste 10 Este 0 -- -- 95
2020-03-23 06:00:00 5.1 4 Este 12 Nordeste 0 -- -- 93
2020-03-23 05:00:00 5.7 2 Nordeste 14 Nordeste 0 -- -- 93
2020-03-23 04:00:00 6.4 3 Este 12 Nordeste 0 -- -- 92
2020-03-23 03:00:00 7.3 7 Nordeste 10 Nordeste 0 -- -- 92
2020-03-23 02:00:00 8.1 3 Nordeste 8 Nordeste 0 -- -- 90
2020-03-23 01:00:00 8.4 5 Nordeste 9 Nordeste 0 -- -- 88
2020-03-23 00:00:00 8.6 0 Calma 8 Nordeste 0 -- -- 87
2020-03-22 23:00:00 9.9 5 Norte 11 Norte 0 -- -- 82
2020-03-22 22:00:00 10.4 4 Noroeste 13 Oeste 0 -- -- 76
2020-03-22 21:00:00 10.5 11 Sudeste 14 Sudeste 0 -- -- 71
2020-03-22 20:00:00 11.3 5 Sudeste 11 Sudeste 0 -- -- 69
2020-03-22 19:00:00 14 6 Este 13 Este 0 -- -- 63
2020-03-22 18:00:00 14.3 9 Este 21 Este 0 -- -- 61
2020-03-22 17:00:00 15.2 3 Nordeste 17 Este 0 -- -- 59
2020-03-22 16:00:00 17 6 Nordeste 21 Este 0 -- -- 54
2020-03-22 15:00:00 15.3 9 Este 17 Este 0 -- -- 60
2020-03-22 14:00:00 13.5 9 Este 18 Este 0 -- -- 65
2020-03-22 13:00:00 12.4 8 Este 14 Nordeste 0 -- -- 69
2020-03-22 12:00:00 10.7 6 Nordeste 10 Norte 0 -- -- 81
2020-03-22 11:00:00 9.4 5 Norte 9 Noroeste 0 -- -- 91
2020-03-22 10:00:00 7.9 3 Noroeste 5 Noroeste 0 -- -- 98
2020-03-22 09:00:00 7.1 0 Calma 5 Oeste 0 -- -- 98
2020-03-22 08:00:00 6 4 Oeste 5 Oeste 0 -- -- 99
2020-03-22 07:00:00 5.6 0 Calma 3 Sudeste 0 -- -- 99
2020-03-22 06:00:00 5.5 2 Sudoeste 4 Oeste 0 -- -- 99
2020-03-22 05:00:00 6.1 2 Este 4 Este 0 -- -- 98
2020-03-22 04:00:00 6.4 0 Calma 4 Noroeste 0 -- -- 98
2020-03-22 03:00:00 6.5 0 Calma 5 Noroeste 0 -- -- 98
2020-03-22 02:00:00 6.7 3 Norte 8 Nordeste 0 -- -- 97
2020-03-22 01:00:00 6.6 5 Nordeste 7 Este 0 -- -- 97
2020-03-22 00:00:00 6.9 4 Este 6 Nordeste 0 -- -- 96
2020-03-21 23:00:00 7 4 Nordeste 6 Nordeste 0 -- -- 95
2020-03-21 22:00:00 7.2 0 Calma 2 Norte 0 -- -- 93
2020-03-21 21:00:00 7.1 0 Calma 3 Sudeste 0 -- -- 93
2020-03-21 20:00:00 7.4 0 Calma 5 Norte 0 -- -- 92
2020-03-21 19:00:00 8.2 0 Calma 7 Sur 0.4 -- -- 79
2020-03-21 18:00:00 8.7 0 Calma 7 Norte 0.2 -- -- 83
2020-03-21 17:00:00 9 5 Nordeste 9 Norte 0 -- -- 80
2020-03-21 16:00:00 10 5 Noroeste 9 Noroeste 0 -- -- 77
2020-03-21 15:00:00 9.1 4 Sur 14 Sur 0 -- -- 77
2020-03-21 14:00:00 8.4 10 Sudoeste 20 Sudoeste 0.2 -- -- 86
2020-03-21 13:00:00 8.3 11 Sur 24 Sudoeste 0 -- -- 88
2020-03-21 12:00:00 8.2 17 Sur 26 Sudoeste 0 -- -- 85
2020-03-21 11:00:00 8.7 6 Sur 12 Sur 0 -- -- 87
2020-03-21 10:00:00 7.9 2 Este 14 Sur 0.2 -- -- 94
2020-03-21 09:00:00 7.4 10 Sur 17 Sur 0.2 -- -- 91
2020-03-21 08:00:00 7.4 9 Sudoeste 15 Sur 0 -- -- 91
2020-03-21 07:00:00 7.7 6 Sur 11 Sur 0 -- -- 96
2020-03-21 06:00:00 8.2 3 Sudoeste 14 Sudoeste 0 -- -- 96
2020-03-21 05:00:00 8.4 12 Sudoeste 23 Sudoeste 0.4 -- -- 95
2020-03-21 04:00:00 8.8 4 Sur 23 Este 0 -- -- 91
2020-03-21 03:00:00 8.7 14 Sudeste 22 Este 0 -- -- 91
2020-03-21 02:00:00 8.3 8 Este 15 Nordeste 0 -- -- 96
2020-03-21 01:00:00 8.4 8 Este 10 Este 0 -- -- 96
2020-03-21 00:00:00 8.8 2 Nordeste 4 Norte 0 -- -- 96
2020-03-20 23:00:00 9.2 2 Noroeste 18 Este 1.4 -- -- 95
2020-03-20 22:00:00 9.8 8 Este 14 Este 0 -- -- 92
2020-03-20 21:00:00 9.5 6 Este 10 Este 0 -- -- 94
2020-03-20 20:00:00 9.9 4 Este 9 Este 0 -- -- 93
2020-03-20 19:00:00 10.8 3 Sudeste 19 Sudeste 0 -- -- 86
2020-03-20 18:00:00 12.3 8 Sudeste 24 Sudeste 0 -- -- 79
2020-03-20 17:00:00 13.1 14 Sudeste 26 Sudeste 0.2 -- -- 74
2020-03-20 16:00:00 10.7 13 Sudeste 23 Sur 0 -- -- 85
2020-03-20 15:00:00 9.8 11 Sudeste 21 Sur 1 -- -- 89
2020-03-20 14:00:00 9.4 15 Sur 26 Sur 2.4 -- -- 92
2020-03-20 13:00:00 9.9 7 Sur 19 Sur 1.8 -- -- 93
2020-03-20 12:00:00 10.1 9 Sur 15 Sur 0.8 -- -- 93
2020-03-20 11:00:00 10.9 5 Sur 10 Sudoeste 0 -- -- 85
2020-03-20 10:00:00 11.3 6 Nordeste 10 Nordeste 0 -- -- 86
2020-03-20 09:00:00 10 4 Nordeste 5 Nordeste 0 -- -- 90
2020-03-20 08:00:00 9.6 2 Nordeste 8 Este 0 -- -- 89
2020-03-20 07:00:00 9.9 5 Este 14 Sudeste 0 -- -- 87
2020-03-20 06:00:00 10 10 Sudeste 12 Sudeste 0 -- -- 86
2020-03-20 05:00:00 10.3 6 Sudeste 9 Sudeste 0 -- -- 78
2020-03-20 04:00:00 10.4 0 Calma 6 Sudoeste 0 -- -- 77
2020-03-20 03:00:00 10.9 4 Sudoeste 9 Sudoeste 0 -- -- 78
2020-03-20 02:00:00 11.1 6 Sudoeste 12 Sudoeste 0 -- -- 78
2020-03-20 01:00:00 11.7 8 Sudoeste 19 Sur 0 -- -- 76
2020-03-20 00:00:00 11.6 13 Sur 20 Sur 0 -- -- 81
2020-03-19 23:00:00 12.3 10 Sur 15 Sudeste 0 -- -- 80
2020-03-19 22:00:00 12.4 9 Sudeste 15 Sudeste 0 -- -- 80
2020-03-19 21:00:00 12.9 10 Sudeste 13 Sudeste 0 -- -- 76
2020-03-19 20:00:00 13.3 9 Sur 12 Sur 0 -- -- 76
2020-03-19 19:00:00 14.7 6 Sudeste 15 Sudeste 0 -- -- 68
2020-03-19 18:00:00 16 9 Este 17 Este 0 -- -- 65
2020-03-19 17:00:00 16.1 8 Este 19 Este 0 -- -- 69
2020-03-19 16:00:00 16.1 12 Este 21 Este 0 -- -- 66
2020-03-19 15:00:00 17.2 7 Nordeste 13 Nordeste 0 -- -- 66
2020-03-19 14:00:00 16.3 4 Norte 12 Noroeste 0 -- -- 68
2020-03-19 13:00:00 15.8 6 Norte 17 Este 0 -- -- 68
2020-03-19 12:00:00 14 9 Este 15 Este 0 -- -- 73
2020-03-19 11:00:00 13 8 Este 16 Este 0 -- -- 76
2020-03-19 10:00:00 11.4 9 Este 13 Este 0 -- -- 81
2020-03-19 09:00:00 9.7 6 Este 9 Este 0 -- -- 90
2020-03-19 08:00:00 8.5 6 Este 13 Este 0 -- -- 94
2020-03-19 07:00:00 8.6 8 Sudeste 13 Sudeste 0 -- -- 93
2020-03-19 06:00:00 9 12 Sudeste 15 Sudeste 0 -- -- 91
2020-03-19 05:00:00 9.3 3 Este 9 Este 0 -- -- 85
2020-03-19 04:00:00 9.3 7 Sudeste 10 Este 0 -- -- 85
2020-03-19 03:00:00 9.8 6 Este 9 Este 0 -- -- 83
2020-03-19 02:00:00 10.1 5 Este 13 Este 0 -- -- 85
2020-03-19 01:00:00 11 9 Este 14 Este 0 -- -- 82
2020-03-19 00:00:00 11.6 7 Este 14 Este 0 -- -- 83
2020-03-18 23:00:00 11.8 6 Este 12 Este 0 -- -- 85
2020-03-18 22:00:00 12.2 8 Este 15 Este 0 -- -- 83
2020-03-18 21:00:00 13 10 Este 14 Este 0 -- -- 79
2020-03-18 20:00:00 14.4 11 Este 18 Este 0 -- -- 75
2020-03-18 19:00:00 16 12 Este 29 Nordeste 0 -- -- 70
2020-03-18 18:00:00 17.3 17 Este 26 Este 0 -- -- 63
2020-03-18 17:00:00 18.3 17 Este 27 Este 0 -- -- 58
2020-03-18 16:00:00 17.8 14 Este 31 Este 0 -- -- 59
2020-03-18 15:00:00 16.2 23 Este 32 Este 0 -- -- 63
2020-03-18 14:00:00 16 21 Este 29 Nordeste 0 -- -- 63
2020-03-18 13:00:00 15.2 15 Este 32 Nordeste 0 -- -- 67
2020-03-18 12:00:00 13.4 17 Este 32 Este 0 -- -- 72
2020-03-18 11:00:00 12.3 17 Este 27 Este 0 -- -- 76
2020-03-18 10:00:00 9.6 18 Nordeste 31 Este 0 -- -- 86
2020-03-18 09:00:00 7.6 14 Este 26 Este 0 -- -- 93
2020-03-18 08:00:00 7.1 16 Este 26 Nordeste 0 -- -- 95
2020-03-18 07:00:00 6.5 8 Este 15 Este 0 -- -- 96
2020-03-18 06:00:00 6.7 10 Nordeste 25 Este 0 -- -- 95
2020-03-18 05:00:00 7 13 Este 24 Este 0 -- -- 95
2020-03-18 04:00:00 7.2 10 Nordeste 18 Nordeste 0 -- -- 96
2020-03-18 03:00:00 7.2 9 Este 16 Nordeste 0 -- -- 96
2020-03-18 02:00:00 7.9 7 Este 19 Este 0 -- -- 93
2020-03-18 01:00:00 8.6 10 Este 27 Este 0 -- -- 91
2020-03-18 00:00:00 9.1 15 Este 24 Nordeste 0 -- -- 90
2020-03-17 23:00:00 10.1 17 Este 32 Este 0 -- -- 87
2020-03-17 22:00:00 10.8 21 Este 32 Este 0 -- -- 84
2020-03-17 21:00:00 11.5 16 Nordeste 37 Este 0 -- -- 81
2020-03-17 20:00:00 12.3 18 Este 32 Este 0 -- -- 78
2020-03-17 19:00:00 13.9 15 Nordeste 33 Nordeste 0 -- -- 70
2020-03-17 18:00:00 14.6 23 Nordeste 34 Nordeste 0 -- -- 67
2020-03-17 17:00:00 15.2 20 Este 35 Este 0 -- -- 63
2020-03-17 16:00:00 14.4 19 Nordeste 34 Nordeste 0 -- -- 66
2020-03-17 15:00:00 13.1 16 Este 33 Nordeste 0 -- -- 68
2020-03-17 14:00:00 12.4 21 Este 36 Este 0 -- -- 70
2020-03-17 13:00:00 11.5 21 Este 33 Este 0 -- -- 75
2020-03-17 12:00:00 10.6 20 Este 33 Este 0 -- -- 76
2020-03-17 11:00:00 9.2 21 Este 39 Este 0 -- -- 81
2020-03-17 10:00:00 8.3 16 Nordeste 38 Nordeste 0 -- -- 86
2020-03-17 09:00:00 5.7 17 Nordeste 37 Nordeste 0 -- -- 94
2020-03-17 08:00:00 5.6 25 Nordeste 46 Nordeste 0 -- -- 90
2020-03-17 07:00:00 5.4 21 Nordeste 39 Nordeste 0 -- -- 89
2020-03-17 06:00:00 5.1 21 Nordeste 35 Nordeste 0 -- -- 89
2020-03-17 05:00:00 4.8 22 Nordeste 45 Este 0 -- -- 91
2020-03-17 04:00:00 5.1 27 Este 49 Este 0 -- -- 87
2020-03-17 03:00:00 5.5 25 Este 45 Nordeste 0 -- -- 83
2020-03-17 02:00:00 5.2 19 Nordeste 37 Nordeste 0 -- -- 83
2020-03-17 01:00:00 6.1 21 Nordeste 36 Nordeste 0 -- -- 72
2020-03-17 00:00:00 6.7 24 Nordeste 50 Nordeste 0 -- -- 60
2020-03-16 23:00:00 7.1 26 Nordeste 45 Nordeste 0 -- -- 58
2020-03-16 22:00:00 7.6 23 Nordeste 48 Nordeste 0 -- -- 55
2020-03-16 21:00:00 7.1 15 Este 28 Este 0 -- -- 74
2020-03-16 20:00:00 7.6 14 Este 32 Este 0 -- -- 69
2020-03-16 19:00:00 8.2 19 Este 39 Nordeste 0 -- -- 69
2020-03-16 18:00:00 9.9 23 Nordeste 37 Norte 0 -- -- 48
2020-03-16 17:00:00 9 13 Norte 28 Nordeste 0 -- -- 51
2020-03-16 16:00:00 9.5 12 Norte 27 Norte 0 -- -- 53
2020-03-16 15:00:00 8.8 9 Noroeste 22 Nordeste 0 -- -- 60
2020-03-16 14:00:00 8 8 Norte 41 Norte 0.2 -- -- 63
2020-03-16 13:00:00 8.2 23 Norte 44 Norte 0 -- -- 53
2020-03-16 12:00:00 9.2 14 Norte 28 Noroeste 0 -- -- 55
2020-03-16 11:00:00 7.8 11 Noroeste 23 Oeste 0 -- -- 63
2020-03-16 10:00:00 5.8 15 Oeste 24 Oeste 0 -- -- 70
2020-03-16 09:00:00 3.7 11 Noroeste 23 Noroeste 0 -- -- 78
2020-03-16 08:00:00 2.8 11 Noroeste 21 Oeste 0 -- -- 83
2020-03-16 07:00:00 2.7 13 Noroeste 23 Noroeste 0 -- -- 83
2020-03-16 06:00:00 2.5 15 Noroeste 26 Noroeste 0 -- -- 85
2020-03-16 05:00:00 2.5 14 Noroeste 24 Noroeste 0 -- -- 85
2020-03-16 04:00:00 2.3 8 Oeste 22 Noroeste 0 -- -- 86
2020-03-16 03:00:00 2.4 15 Oeste 28 Oeste 0 -- -- 87
2020-03-16 02:00:00 2.5 17 Noroeste 29 Noroeste 0 -- -- 86
2020-03-16 01:00:00 2.6 14 Noroeste 31 Noroeste 0 -- -- 83
2020-03-16 00:00:00 2.5 19 Noroeste 31 Noroeste 0 -- -- 83
2020-03-15 23:00:00 2.5 23 Oeste 36 Sudoeste 0 -- -- 84
2020-03-15 22:00:00 3.3 22 Oeste 42 Oeste 0 -- -- 83
2020-03-15 21:00:00 3.2 16 Oeste 44 Noroeste 0.2 -- -- 90
2020-03-15 20:00:00 3.4 28 Noroeste 57 Oeste 0.6 -- -- 89
2020-03-15 19:00:00 9.9 38 Oeste 55 Oeste 0 -- -- 69
2020-03-15 18:00:00 14.3 24 Oeste 51 Oeste 0 -- -- 49
2020-03-15 17:00:00 14.5 21 Oeste 39 Oeste 0 -- -- 52
2020-03-15 16:00:00 14.1 29 Oeste 43 Oeste 0 -- -- 53
2020-03-15 15:00:00 13.4 24 Oeste 43 Oeste 0 -- -- 61
2020-03-15 14:00:00 14.6 31 Oeste 47 Oeste 0 -- -- 56
2020-03-15 13:00:00 16.1 23 Oeste 33 Sudoeste 0 -- -- 49
2020-03-15 12:00:00 15.7 11 Oeste 26 Oeste 0 -- -- 49
2020-03-15 11:00:00 12.2 13 Oeste 19 Oeste 0 -- -- 55
2020-03-15 10:00:00 8.2 3 Noroeste 8 Este 0 -- -- 65
2020-03-15 09:00:00 5.3 0 Calma 4 Sudoeste 0 -- -- 78
2020-03-15 08:00:00 3.6 0 Calma 2 Oeste 0 -- -- 72
2020-03-15 07:00:00 2.9 0 Calma 2 Sudoeste 0 -- -- 84
2020-03-15 06:00:00 4.2 0 Calma 4 Sudeste 0 -- -- 82
2020-03-15 05:00:00 5.3 0 Calma 0 Calma 0 -- -- 73
2020-03-15 04:00:00 5.8 0 Calma 2 Sudoeste 0 -- -- 75
2020-03-15 03:00:00 6.9 0 Calma 4 Nordeste 0 -- -- 64
2020-03-15 02:00:00 7.9 2 Este 4 Sur 0 -- -- 59
2020-03-15 01:00:00 9.5 0 Calma 3 Sur 0 -- -- 57
2020-03-15 00:00:00 9.4 0 Calma 4 Sudeste 0 -- -- 58
2020-03-14 23:00:00 11.3 0 Calma 13 Sur 0 -- -- 47
2020-03-14 22:00:00 12.9 12 Sur 15 Sur 0 -- -- 43
2020-03-14 21:00:00 13.7 12 Sur 14 Sur 0 -- -- 46
2020-03-14 20:00:00 14.8 7 Sur 8 Sur 0 -- -- 38
2020-03-14 19:00:00 20.4 3 Oeste 8 Oeste 0 -- -- 32
2020-03-14 18:00:00 20.9 5 Noroeste 13 Norte 0 -- -- 32
2020-03-14 17:00:00 20.5 6 Norte 15 Noroeste 0 -- -- 32
2020-03-14 16:00:00 20.5 3 Oeste 12 Sudeste 0 -- -- 31
2020-03-14 15:00:00 18.6 9 Sudeste 17 Nordeste 0 -- -- 34
2020-03-14 14:00:00 17.4 10 Nordeste 18 Este 0 -- -- 42
2020-03-14 13:00:00 16.1 10 Este 22 Este 0 -- -- 47
2020-03-14 12:00:00 13.3 8 Norte 13 Nordeste 0 -- -- 63
2020-03-14 11:00:00 10.3 4 Norte 9 Nordeste 0 -- -- 71
2020-03-14 10:00:00 6.9 4 Nordeste 6 Nordeste 0 -- -- 83
2020-03-14 09:00:00 4.7 3 Nordeste 5 Nordeste 0 -- -- 93
2020-03-14 08:00:00 2.9 5 Este 8 Este 0 -- -- 98
2020-03-14 07:00:00 2.5 0 Calma 8 Este 0 -- -- 96
2020-03-14 06:00:00 3.6 7 Este 12 Este 0 -- -- 96
2020-03-14 05:00:00 3.5 2 Nordeste 6 Este 0 -- -- 96
2020-03-14 04:00:00 4.3 6 Este 10 Este 0 -- -- 94
2020-03-14 03:00:00 5.6 9 Este 13 Este 0 -- -- 91
2020-03-14 02:00:00 6 7 Este 14 Este 0 -- -- 92
2020-03-14 01:00:00 6.6 4 Nordeste 9 Este 0 -- -- 89
2020-03-14 00:00:00 7.7 8 Este 15 Este 0 -- -- 86
2020-03-13 23:00:00 8.9 8 Sudeste 10 Este 0 -- -- 83
2020-03-13 22:00:00 10.1 8 Este 16 Sudeste 0 -- -- 79
2020-03-13 21:00:00 11 9 Sudeste 17 Sudeste 0 -- -- 75
2020-03-13 20:00:00 12.3 10 Sudeste 13 Sudeste 0 -- -- 71
2020-03-13 19:00:00 15.5 9 Sudeste 14 Este 0 -- -- 61
2020-03-13 18:00:00 18.7 10 Este 20 Nordeste 0 -- -- 52
2020-03-13 17:00:00 17.9 11 Nordeste 28 Nordeste 0 -- -- 54
2020-03-13 16:00:00 18 15 Norte 25 Nordeste 0 -- -- 57
2020-03-13 15:00:00 17.3 12 Nordeste 23 Nordeste 0 -- -- 57
2020-03-13 14:00:00 16 14 Nordeste 29 Este 0 -- -- 61
2020-03-13 13:00:00 14.5 16 Nordeste 28 Nordeste 0 -- -- 65
2020-03-13 12:00:00 13.5 16 Nordeste 26 Este 0 -- -- 66
2020-03-13 11:00:00 11 18 Este 27 Este 0 -- -- 73
2020-03-13 10:00:00 8.8 16 Nordeste 34 Este 0 -- -- 82
2020-03-13 09:00:00 7.6 18 Este 35 Nordeste 0 -- -- 86
2020-03-13 08:00:00 6.9 15 Este 35 Este 0 -- -- 89
2020-03-13 07:00:00 6.8 18 Este 31 Este 0 -- -- 89
2020-03-13 06:00:00 6.6 13 Este 22 Nordeste 0 -- -- 90
2020-03-13 05:00:00 7.1 14 Nordeste 25 Este 0 -- -- 88
2020-03-13 04:00:00 7.5 9 Nordeste 20 Este 0 -- -- 90
2020-03-13 03:00:00 8 12 Nordeste 18 Nordeste 0 -- -- 89
2020-03-13 02:00:00 8.2 9 Nordeste 27 Nordeste 0 -- -- 90
2020-03-13 01:00:00 9.1 14 Nordeste 24 Nordeste 0 -- -- 88
2020-03-13 00:00:00 10.3 16 Nordeste 41 Nordeste 0 -- -- 85
2020-03-12 23:00:00 13 7 Nordeste 12 Nordeste 0 -- -- 78
2020-03-12 22:00:00 14.4 3 Oeste 12 Oeste 0 -- -- 69
2020-03-12 21:00:00 15.6 7 Oeste 13 Noroeste 0 -- -- 67
2020-03-12 20:00:00 16.3 7 Noroeste 15 Oeste 0 -- -- 66
2020-03-12 19:00:00 17.9 12 Oeste 18 Oeste 0 -- -- 64
2020-03-12 18:00:00 19.9 12 Oeste 18 Oeste 0 -- -- 57
2020-03-12 17:00:00 21.2 5 Noroeste 13 Noroeste 0 -- -- 55
2020-03-12 16:00:00 22 5 Oeste 13 Oeste 0 -- -- 49
2020-03-12 15:00:00 21.6 5 Noroeste 12 Noroeste 0 -- -- 47
2020-03-12 14:00:00 19 0 Calma 6 Noroeste 0 -- -- 52
2020-03-12 13:00:00 17.9 5 Noroeste 9 Noroeste 0 -- -- 61
2020-03-12 12:00:00 15.2 3 Norte 8 Sudeste 0 -- -- 69
2020-03-12 11:00:00 13.8 4 Sudeste 6 Sudeste 0 -- -- 76
2020-03-12 10:00:00 12.6 0 Calma 7 Noroeste 0 -- -- 82
2020-03-12 09:00:00 10.3 2 Noroeste 9 Sudeste 0 -- -- 88
2020-03-12 08:00:00 9.8 0 Calma 14 Sudeste 0 -- -- 87
2020-03-12 07:00:00 10 0 Calma 5 Este 0 -- -- 86
2020-03-12 06:00:00 10.6 3 Sur 5 Sudeste 0 -- -- 85
2020-03-12 05:00:00 11 0 Calma 5 Sudeste 0 -- -- 84
2020-03-12 04:00:00 11.2 0 Calma 4 Sudoeste 0 -- -- 79
2020-03-12 03:00:00 11.9 0 Calma -- -- 0 -- -- 77
2020-03-12 02:00:00 13.1 0 Calma 2 Oeste 0 -- -- 68
2020-03-12 01:00:00 14.9 0 Calma 6 Sudeste 0 -- -- 60
2020-03-12 00:00:00 14.7 2 Oeste 4 Noroeste 0 -- -- 61
2020-03-11 23:00:00 16.5 0 Calma 4 Sudoeste 0 -- -- 52
2020-03-11 22:00:00 17.2 0 Calma 7 Sudoeste 0 -- -- 48
2020-03-11 21:00:00 17.7 4 Sudoeste 6 Sudoeste 0 -- -- 48
2020-03-11 20:00:00 18 5 Oeste 9 Noroeste 0 -- -- 48
2020-03-11 19:00:00 20.5 5 Oeste 12 Noroeste 0 -- -- 45
2020-03-11 18:00:00 22.5 8 Noroeste 21 Oeste 0 -- -- 42
2020-03-11 17:00:00 24.9 12 Oeste 23 Oeste 0 -- -- 36
2020-03-11 16:00:00 24.5 14 Oeste 23 Oeste 0 -- -- 36
2020-03-11 15:00:00 24 12 Oeste 22 Oeste 0 -- -- 39
2020-03-11 14:00:00 22.2 5 Noroeste 10 Noroeste 0 -- -- 47
2020-03-11 13:00:00 20.1 4 Noroeste 10 Noroeste 0 -- -- 52
2020-03-11 12:00:00 18.4 4 Noroeste 7 Noroeste 0 -- -- 57
2020-03-11 11:00:00 14.9 4 Norte 7 Norte 0 -- -- 64
2020-03-11 10:00:00 11.1 2 Norte 4 Norte 0 -- -- 71
2020-03-11 09:00:00 8.6 2 Este 3 Este 0 -- -- 75
2020-03-11 08:00:00 6.3 0 Calma 3 Sudeste 0 -- -- 77
2020-03-11 07:00:00 7.1 0 Calma -- -- 0 -- -- 76
2020-03-11 06:00:00 7.7 0 Calma -- -- 0 -- -- 72
2020-03-11 05:00:00 7.4 0 Calma 5 Oeste 0 -- -- 71
2020-03-11 04:00:00 10 0 Calma 6 Sudoeste 0 -- -- 49
2020-03-11 03:00:00 10.2 0 Calma 15 Sur 0 -- -- 53
2020-03-11 02:00:00 11.4 13 Sur 19 Sur 0 -- -- 52
2020-03-11 01:00:00 12.4 8 Sudoeste 10 Sudoeste 0 -- -- 45
2020-03-11 00:00:00 12.2 5 Oeste 15 Oeste 0 -- -- 49
2020-03-10 23:00:00 15.3 13 Sudoeste 20 Sudoeste 0 -- -- 44
2020-03-10 22:00:00 16.1 15 Oeste 19 Oeste 0 -- -- 46
2020-03-10 21:00:00 16.4 11 Oeste 17 Oeste 0 -- -- 42
2020-03-10 20:00:00 16.7 12 Oeste 14 Oeste 0 -- -- 41
2020-03-10 19:00:00 19.4 12 Oeste 19 Oeste 0 -- -- 37
2020-03-10 18:00:00 21.6 12 Noroeste 24 Oeste 0 -- -- 41
2020-03-10 17:00:00 21.9 14 Oeste 25 Oeste 0 -- -- 41
2020-03-10 16:00:00 21.3 13 Oeste 23 Oeste 0 -- -- 41
2020-03-10 15:00:00 20.5 16 Oeste 27 Oeste 0 -- -- 45
2020-03-10 14:00:00 20.1 13 Oeste 22 Oeste 0 -- -- 42
2020-03-10 13:00:00 18.3 10 Oeste 14 Oeste 0 -- -- 48
2020-03-10 12:00:00 16.8 5 Noroeste 9 Noroeste 0 -- -- 59
2020-03-10 11:00:00 12.4 5 Noroeste 9 Sur 0 -- -- 71
2020-03-10 10:00:00 11.1 2 Sudoeste 8 Sur 0 -- -- 77
2020-03-10 09:00:00 6.9 0 Calma 7 Sur 0 -- -- 90
2020-03-10 08:00:00 5.4 0 Calma 5 Sur 0 -- -- 93
2020-03-10 07:00:00 5.8 2 Oeste 21 Sur 0 -- -- 89
2020-03-10 06:00:00 6.2 19 Sur 24 Sur 0 -- -- 89
2020-03-10 05:00:00 7 18 Sur 23 Sur 0 -- -- 86
2020-03-10 04:00:00 8.3 13 Sudoeste 19 Sudoeste 0 -- -- 80
2020-03-10 03:00:00 8.1 10 Sudoeste 18 Sudoeste 0 -- -- 74
2020-03-10 02:00:00 8.4 13 Sudoeste 17 Sur 0 -- -- 72
2020-03-10 01:00:00 9.2 10 Sudoeste 15 Sudoeste 0 -- -- 66
2020-03-10 00:00:00 9.3 10 Oeste 16 Sudoeste 0 -- -- 66
2020-03-09 23:00:00 10.1 14 Sudoeste 20 Sudoeste 0 -- -- 63
2020-03-09 22:00:00 10.5 10 Sudoeste 20 Sudoeste 0 -- -- 56
2020-03-09 21:00:00 11.5 13 Sudoeste 18 Sudoeste 0 -- -- 50
2020-03-09 20:00:00 11.4 11 Sudoeste 19 Oeste 0 -- -- 54
2020-03-09 19:00:00 13.5 12 Sudoeste 21 Oeste 0 -- -- 50
2020-03-09 18:00:00 15.1 15 Oeste 24 Oeste 0 -- -- 47
2020-03-09 17:00:00 15.7 14 Oeste 22 Sudoeste 0 -- -- 46
2020-03-09 16:00:00 16.1 11 Oeste 19 Oeste 0 -- -- 45
2020-03-09 15:00:00 15.7 8 Sudoeste 17 Oeste 0 -- -- 46
2020-03-09 14:00:00 14.1 9 Sudoeste 18 Sudoeste 0 -- -- 50
2020-03-09 13:00:00 13 12 Noroeste 23 Oeste 0 -- -- 51
2020-03-09 12:00:00 11.7 13 Oeste 21 Oeste 0 -- -- 56
2020-03-09 11:00:00 9.6 12 Oeste 21 Oeste 0 -- -- 67
2020-03-09 10:00:00 7.8 10 Oeste 17 Oeste 0 -- -- 72
2020-03-09 09:00:00 5.7 10 Oeste 22 Oeste 0 -- -- 82
2020-03-09 08:00:00 4.4 13 Sudoeste 23 Oeste 0 -- -- 86
2020-03-09 07:00:00 4.9 11 Oeste 27 Oeste 0 -- -- 84
2020-03-09 06:00:00 5.3 18 Oeste 27 Oeste 0 -- -- 82
2020-03-09 05:00:00 5.8 17 Oeste 25 Noroeste 0 -- -- 79
2020-03-09 04:00:00 5.8 15 Oeste 23 Oeste 0 -- -- 82
2020-03-09 03:00:00 6.4 15 Oeste 23 Oeste 0 -- -- 82
2020-03-09 02:00:00 6.9 15 Noroeste 34 Noroeste 0 -- -- 79
2020-03-09 01:00:00 7.5 23 Noroeste 35 Noroeste 0 -- -- 79
2020-03-09 00:00:00 7.8 15 Oeste 24 Oeste 0 -- -- 83
2020-03-08 23:00:00 8.3 15 Oeste 30 Oeste 0 -- -- 81
2020-03-08 22:00:00 9.1 23 Oeste 30 Oeste 0 -- -- 87
2020-03-08 21:00:00 9.8 16 Sudoeste 23 Oeste 0 -- -- 88
2020-03-08 20:00:00 10.1 15 Sudoeste 26 Sudoeste 0 -- -- 85
2020-03-08 19:00:00 10.9 9 Sudoeste 24 Oeste 0 -- -- 80
2020-03-08 18:00:00 11.8 12 Sudoeste 22 Oeste 0 -- -- 76
2020-03-08 17:00:00 11.7 15 Oeste 31 Oeste 0 -- -- 75
2020-03-08 16:00:00 12.1 21 Oeste 32 Oeste 0 -- -- 72
2020-03-08 15:00:00 11.2 15 Oeste 27 Oeste 0 -- -- 74
2020-03-08 14:00:00 10.2 12 Oeste 27 Oeste 0 -- -- 72
2020-03-08 13:00:00 9 12 Sudoeste 27 Oeste 0 -- -- 76
2020-03-08 12:00:00 8.5 12 Oeste 20 Sudoeste 0 -- -- 76
2020-03-08 11:00:00 7.3 12 Sudoeste 26 Oeste 0 -- -- 81
2020-03-08 10:00:00 7.4 11 Sudoeste 21 Oeste 0 -- -- 84
2020-03-08 09:00:00 3.5 4 Oeste 21 Oeste 0 -- -- 93
2020-03-08 08:00:00 3.5 10 Oeste 19 Sudoeste 0 -- -- 94
2020-03-08 07:00:00 3.8 10 Sudoeste 17 Sur 0 -- -- 95
2020-03-08 06:00:00 3.5 4 Oeste 20 Sudoeste 0 -- -- 94
2020-03-08 05:00:00 3.5 4 Sudoeste 17 Sudoeste 0 -- -- 92
2020-03-08 04:00:00 4.3 12 Sudoeste 18 Sudoeste 0 -- -- 88
2020-03-08 03:00:00 5.4 14 Sur 17 Sur 0 -- -- 81
2020-03-08 02:00:00 5.3 6 Oeste 15 Sudoeste 0 -- -- 82
2020-03-08 01:00:00 5.1 5 Oeste 16 Sur 0 -- -- 81
2020-03-08 00:00:00 8.1 16 Sur 17 Sur 0 -- -- 67
2020-03-07 23:00:00 8.6 13 Sur 14 Sur 0 -- -- 68
2020-03-07 22:00:00 8.8 0 Calma 12 Sudoeste 0 -- -- 69
2020-03-07 21:00:00 9.1 7 Sudoeste 11 Sudoeste 0 -- -- 70
2020-03-07 20:00:00 8.9 6 Sudoeste 15 Oeste 0 -- -- 72
2020-03-07 19:00:00 13.5 10 Oeste 18 Oeste 0 -- -- 57
2020-03-07 18:00:00 15.6 9 Noroeste 21 Oeste 0 -- -- 51
2020-03-07 17:00:00 15.2 15 Oeste 26 Oeste 0 -- -- 50
2020-03-07 16:00:00 15.5 14 Oeste 23 Noroeste 0 -- -- 51
2020-03-07 15:00:00 15.5 8 Oeste 18 Oeste 0 -- -- 50
2020-03-07 14:00:00 13.5 9 Sudoeste 17 Sur 0 -- -- 57
2020-03-07 13:00:00 13.1 6 Norte 13 Noroeste 0 -- -- 61
2020-03-07 12:00:00 11.9 10 Noroeste 15 Noroeste 0 -- -- 68
2020-03-07 11:00:00 10.2 8 Noroeste 13 Oeste 0 -- -- 75
2020-03-07 10:00:00 7 6 Oeste 11 Oeste 0 -- -- 84
2020-03-07 09:00:00 5.4 5 Sudoeste 14 Sudoeste 0 -- -- 89
2020-03-07 08:00:00 4.3 12 Oeste 17 Oeste 0 -- -- 91
2020-03-07 07:00:00 4.4 10 Sudoeste 18 Oeste 0 -- -- 89
2020-03-07 06:00:00 4.4 12 Oeste 18 Oeste 0 -- -- 89
2020-03-07 05:00:00 4.5 10 Oeste 17 Oeste 0 -- -- 87
2020-03-07 04:00:00 4.7 10 Oeste 18 Oeste 0 -- -- 85
2020-03-07 03:00:00 4.7 6 Sudoeste 19 Noroeste 0 -- -- 82
2020-03-07 02:00:00 4.9 9 Noroeste 25 Noroeste 0 -- -- 78
2020-03-07 01:00:00 4.8 18 Oeste 28 Noroeste 0 -- -- 75
2020-03-07 00:00:00 4.8 19 Oeste 28 Oeste 0 -- -- 71
2020-03-06 23:00:00 5.3 18 Noroeste 31 Noroeste 0 -- -- 66
2020-03-06 22:00:00 6.1 23 Noroeste 34 Noroeste 0 -- -- 63
2020-03-06 21:00:00 6.1 16 Oeste 31 Noroeste 0 -- -- 65
2020-03-06 20:00:00 7 19 Noroeste 38 Oeste 0 -- -- 62
2020-03-06 19:00:00 8.5 27 Noroeste 45 Noroeste 0 -- -- 59
2020-03-06 18:00:00 9.9 29 Noroeste 44 Oeste 0 -- -- 54
2020-03-06 17:00:00 9.6 28 Oeste 58 Oeste 0 -- -- 56
2020-03-06 16:00:00 10.3 35 Noroeste 53 Oeste 0 -- -- 55
2020-03-06 15:00:00 10 32 Oeste 55 Oeste 0 -- -- 56
2020-03-06 14:00:00 9.1 35 Noroeste 51 Oeste 0 -- -- 62
2020-03-06 13:00:00 8 29 Oeste 57 Noroeste 0 -- -- 64
2020-03-06 12:00:00 7.1 38 Noroeste 55 Oeste 0 -- -- 70
2020-03-06 11:00:00 6.2 24 Noroeste 49 Oeste 0 -- -- 76
2020-03-06 10:00:00 5.5 42 Oeste 72 Noroeste 0.2 -- -- 81
2020-03-06 09:00:00 4.4 22 Oeste 35 Oeste 0 -- -- 87
2020-03-06 08:00:00 4.6 19 Oeste 37 Oeste 0 -- -- 82
2020-03-06 07:00:00 4.5 17 Oeste 53 Oeste 0 -- -- 87
2020-03-06 06:00:00 5.2 31 Oeste 48 Oeste 0 -- -- 87
2020-03-06 05:00:00 5.5 28 Oeste 55 Oeste 0 -- -- 87
2020-03-06 04:00:00 5.6 31 Oeste 50 Oeste 0 -- -- 87
2020-03-06 03:00:00 5.6 29 Oeste 44 Oeste 1.6 -- -- 95
2020-03-06 02:00:00 5.5 21 Sudoeste 34 Sudoeste 0.2 -- -- 93
2020-03-06 01:00:00 5.4 18 Sudoeste 32 Sudoeste 0 -- -- 92
2020-03-06 00:00:00 5.8 15 Sudoeste 27 Oeste 0 -- -- 85
2020-03-05 23:00:00 6.3 18 Oeste 28 Oeste 0 -- -- 81
2020-03-05 22:00:00 6.4 18 Oeste 30 Oeste 0 -- -- 79
2020-03-05 21:00:00 6.8 19 Oeste 32 Oeste 0 -- -- 77
2020-03-05 20:00:00 7.1 19 Oeste 49 Oeste 0.4 -- -- 79
2020-03-05 19:00:00 8.3 22 Oeste 32 Noroeste 0.4 -- -- 80
2020-03-05 18:00:00 9.3 21 Oeste 40 Noroeste 0.6 -- -- 82
2020-03-05 17:00:00 11.4 30 Oeste 47 Oeste 0 -- -- 68
2020-03-05 16:00:00 10.9 32 Oeste 57 Oeste 0 -- -- 71
2020-03-05 15:00:00 12.2 31 Oeste 48 Oeste 0 -- -- 71
2020-03-05 14:00:00 11.6 29 Oeste 44 Oeste 0 -- -- 69
2020-03-05 13:00:00 9.9 27 Oeste 46 Oeste 0 -- -- 73
2020-03-05 12:00:00 9.7 28 Oeste 48 Oeste 0 -- -- 69
2020-03-05 11:00:00 9.5 32 Oeste 50 Oeste 0 -- -- 73
2020-03-05 10:00:00 8 29 Oeste 49 Oeste 0 -- -- 83
2020-03-05 09:00:00 6.9 35 Oeste 84 Noroeste 0 -- -- 85
2020-03-05 08:00:00 8.8 46 Oeste 72 Oeste 2.2 -- -- 92
2020-03-05 07:00:00 10.2 35 Sudoeste 59 Sudoeste 0.4 -- -- 93
2020-03-05 06:00:00 10.1 29 Sudoeste 53 Sudoeste 0.4 -- -- 94
2020-03-05 05:00:00 10.3 26 Sudoeste 53 Sudoeste 0 -- -- 90
2020-03-05 04:00:00 10.3 28 Sudoeste 53 Sudoeste 0.2 -- -- 93
2020-03-05 03:00:00 10.9 26 Sudoeste 42 Sudoeste 0 -- -- 92
2020-03-05 02:00:00 11.1 18 Sudoeste 43 Sudoeste 0 -- -- 94
2020-03-05 01:00:00 11.2 26 Sudoeste 39 Sudoeste 0.2 -- -- 95
2020-03-05 00:00:00 11.5 22 Sudoeste 34 Sudoeste 0 -- -- 93
2020-03-04 23:00:00 11.4 19 Sudoeste 29 Sur 0 -- -- 93
2020-03-04 22:00:00 11.5 19 Sudoeste 31 Sudoeste 0 -- -- 91
2020-03-04 21:00:00 11.4 17 Sudoeste 36 Sudoeste 0.2 -- -- 93
2020-03-04 20:00:00 12.2 17 Sudoeste 30 Sudoeste 0 -- -- 86
2020-03-04 19:00:00 13.3 14 Sudoeste 33 Oeste 0 -- -- 79
2020-03-04 18:00:00 14.1 18 Oeste 32 Oeste 0 -- -- 72
2020-03-04 17:00:00 13.8 21 Oeste 35 Oeste 0 -- -- 73
2020-03-04 16:00:00 14.5 23 Oeste 38 Oeste 0 -- -- 69
2020-03-04 15:00:00 15.4 24 Oeste 36 Sudoeste 0 -- -- 68
2020-03-04 14:00:00 13.1 19 Oeste 33 Sudoeste 0 -- -- 75
2020-03-04 13:00:00 12.9 25 Oeste 35 Sudoeste 0 -- -- 79
2020-03-04 12:00:00 12.3 18 Oeste 30 Sudoeste 0 -- -- 80
2020-03-04 11:00:00 11.5 12 Oeste 26 Oeste 0 -- -- 85
2020-03-04 10:00:00 10.7 15 Oeste 27 Sudoeste 0 -- -- 90
2020-03-04 09:00:00 9.7 15 Sudoeste 25 Sudoeste 0 -- -- 94
2020-03-04 08:00:00 9.8 14 Sudoeste 32 Oeste 0 -- -- 92
2020-03-04 07:00:00 10 22 Oeste 38 Oeste 0 -- -- 93
2020-03-04 06:00:00 10.2 21 Sudoeste 31 Oeste 0.2 -- -- 94
2020-03-04 05:00:00 10.7 18 Sudoeste 35 Oeste 0 -- -- 91
2020-03-04 04:00:00 10.9 18 Sudoeste 33 Oeste 0 -- -- 92
2020-03-04 03:00:00 11.2 20 Sudoeste 37 Sudoeste 0 -- -- 92
2020-03-04 02:00:00 11.4 18 Sudoeste 40 Oeste 0 -- -- 91
2020-03-04 01:00:00 11.9 21 Oeste 38 Oeste 0 -- -- 88
2020-03-04 00:00:00 12 24 Oeste 39 Sudoeste 0 -- -- 88
2020-03-03 23:00:00 12.1 24 Oeste 35 Sudoeste 0 -- -- 90
2020-03-03 22:00:00 12.5 24 Oeste 35 Sudoeste 0 -- -- 87
2020-03-03 21:00:00 12.6 17 Oeste 33 Oeste 0 -- -- 86
2020-03-03 20:00:00 12.9 22 Sudoeste 34 Oeste 0 -- -- 85
2020-03-03 19:00:00 13.3 24 Oeste 43 Oeste 0 -- -- 83
2020-03-03 18:00:00 14.8 25 Oeste 54 Oeste 0 -- -- 77
2020-03-03 17:00:00 14.2 32 Oeste 54 Oeste 0 -- -- 80
2020-03-03 16:00:00 14.8 37 Oeste 59 Sudoeste 0 -- -- 77
2020-03-03 15:00:00 15.7 41 Oeste 62 Oeste 0 -- -- 74
2020-03-03 14:00:00 14.4 39 Oeste 61 Oeste 0 -- -- 80
2020-03-03 13:00:00 13.2 43 Oeste 69 Oeste 0 -- -- 85
2020-03-03 12:00:00 12 26 Oeste 46 Oeste 0 -- -- 83
2020-03-03 11:00:00 11.3 34 Oeste 54 Oeste 0 -- -- 84
2020-03-03 10:00:00 9.3 33 Oeste 55 Sudoeste 0 -- -- 89
2020-03-03 09:00:00 8.1 33 Oeste 51 Sudoeste 0 -- -- 91
2020-03-03 08:00:00 7.6 26 Sudoeste 50 Sudoeste 0 -- -- 89
2020-03-03 07:00:00 7.3 28 Sudoeste 58 Sudoeste 0 -- -- 90
2020-03-03 06:00:00 6.9 34 Oeste 51 Sudoeste 0 -- -- 91
2020-03-03 05:00:00 6.4 24 Sudoeste 48 Sudoeste 0 -- -- 93
2020-03-03 04:00:00 5.9 25 Sudoeste 40 Sudoeste 0 -- -- 93
2020-03-03 03:00:00 5.7 22 Sudoeste 36 Sudoeste 0 -- -- 87
2020-03-03 02:00:00 5.3 18 Sudoeste 32 Sudoeste 0 -- -- 86
2020-03-03 01:00:00 5.3 17 Sudoeste 29 Sudoeste 0 -- -- 83
2020-03-03 00:00:00 5.1 16 Sudoeste 33 Sudoeste 0 -- -- 81
2020-03-02 23:00:00 4.9 17 Sudoeste 30 Sudoeste 0 -- -- 80
2020-03-02 22:00:00 4.9 11 Sudoeste 34 Oeste 0 -- -- 77
2020-03-02 21:00:00 5.5 28 Oeste 42 Oeste 0 -- -- 73
2020-03-02 20:00:00 5.7 26 Oeste 47 Oeste 0 -- -- 70
2020-03-02 19:00:00 6.3 30 Oeste 53 Oeste 0 -- -- 71
2020-03-02 18:00:00 8 28 Oeste 45 Oeste 0 -- -- 64
2020-03-02 17:00:00 9.7 31 Oeste 55 Oeste 0 -- -- 57
2020-03-02 16:00:00 9.4 33 Oeste 58 Oeste 0 -- -- 55
2020-03-02 15:00:00 8.3 33 Oeste 60 Noroeste 0 -- -- 60
2020-03-02 14:00:00 5.9 34 Noroeste 54 Noroeste 0.4 -- -- 70
2020-03-02 13:00:00 5.2 36 Noroeste 63 Noroeste 0 -- -- 76
2020-03-02 12:00:00 5.5 40 Oeste 73 Oeste 0.4 -- -- 81
2020-03-02 11:00:00 7.8 35 Oeste 59 Oeste 0 -- -- 74
2020-03-02 10:00:00 6.5 30 Oeste 49 Oeste 0.4 -- -- 84
2020-03-02 09:00:00 5.7 32 Oeste 53 Oeste 0 -- -- 88
2020-03-02 08:00:00 6.3 32 Oeste 65 Oeste 0 -- -- 81
2020-03-02 07:00:00 7 45 Oeste 67 Oeste 0 -- -- 80
2020-03-02 06:00:00 8.3 48 Oeste 80 Oeste 0.2 -- -- 77
2020-03-02 05:00:00 10.1 49 Oeste 99 Oeste 1 -- -- 76
2020-03-02 04:00:00 11.5 56 Oeste 90 Oeste 0.2 -- -- 79
2020-03-02 03:00:00 10.8 47 Sudoeste 73 Oeste 0.8 -- -- 93
2020-03-02 02:00:00 10.5 41 Sudoeste 75 Sudoeste 0.4 -- -- 94
2020-03-02 01:00:00 10.4 39 Sudoeste 72 Oeste 0.8 -- -- 93
2020-03-02 00:00:00 10.2 41 Sudoeste 69 Sudoeste 1.6 -- -- 92
2020-03-01 23:00:00 10.1 37 Sudoeste 70 Sudoeste 4.8 -- -- 94
2020-03-01 22:00:00 9.5 33 Sudoeste 64 Sudoeste 2.8 -- -- 93
2020-03-01 21:00:00 9.9 27 Sudoeste 53 Sudoeste 1.6 -- -- 92
2020-03-01 20:00:00 10.4 28 Sudoeste 46 Sudoeste 1.6 -- -- 95
2020-03-01 19:00:00 10.2 23 Sudoeste 48 Sudoeste 4 -- -- 94
2020-03-01 18:00:00 12.5 35 Sudoeste 54 Sudoeste 0 -- -- 69
2020-03-01 17:00:00 14.6 31 Oeste 57 Oeste 0 -- -- 57
2020-03-01 16:00:00 15.5 37 Oeste 62 Oeste 0 -- -- 50
2020-03-01 15:00:00 15.6 29 Oeste 56 Oeste 0 -- -- 55
2020-03-01 14:00:00 13.4 30 Oeste 54 Oeste 0 -- -- 76
2020-03-01 13:00:00 13.6 39 Oeste 57 Oeste 0 -- -- 71
2020-03-01 12:00:00 11.6 27 Sudoeste 39 Oeste 0 -- -- 87
2020-03-01 11:00:00 10.5 17 Sudoeste 49 Sudoeste 0 -- -- 90
2020-03-01 10:00:00 9.4 21 Sudoeste 39 Sudoeste 0.6 -- -- 94
2020-03-01 09:00:00 8.9 23 Sudoeste 53 Oeste 0.4 -- -- 94
2020-03-01 08:00:00 7.6 18 Sudoeste 50 Sudoeste 2 -- -- 96
2020-03-01 07:00:00 7.4 26 Sudoeste 52 Sudoeste 0.2 -- -- 94
2020-03-01 06:00:00 7.3 28 Sudoeste 48 Sudoeste 0 -- -- 95
2020-03-01 05:00:00 7.2 23 Sudoeste 36 Sudoeste 0 -- -- 91
2020-03-01 04:00:00 6.8 19 Sudoeste 37 Sudoeste 0 -- -- 88
2020-03-01 03:00:00 6.7 22 Sudoeste 40 Sudoeste 0 -- -- 89
2020-03-01 02:00:00 6.7 22 Sudoeste 37 Sudoeste 0 -- -- 89
2020-03-01 01:00:00 6.6 21 Sudoeste 34 Sudoeste 0 -- -- 92
2020-03-01 00:00:00 6.7 16 Sudoeste 31 Sudoeste 0 -- -- 92
2020-02-29 23:00:00 6.9 23 Sudoeste 39 Sudoeste 0 -- -- 91
2020-02-29 22:00:00 6.9 20 Sudoeste 39 Oeste 0.2 -- -- 94
2020-02-29 21:00:00 6.9 18 Oeste 28 Oeste 0.4 -- -- 94
2020-02-29 20:00:00 8.6 21 Oeste 32 Oeste 0 -- -- 75
2020-02-29 19:00:00 9 21 Oeste 47 Oeste 0 -- -- 72
2020-02-29 18:00:00 9.8 26 Oeste 46 Oeste 0 -- -- 65
2020-02-29 17:00:00 10.1 30 Oeste 54 Oeste 0 -- -- 61
2020-02-29 16:00:00 10.7 32 Oeste 57 Oeste 0 -- -- 59
2020-02-29 15:00:00 10.6 35 Oeste 54 Oeste 0 -- -- 62
2020-02-29 14:00:00 11.1 34 Oeste 54 Oeste 0 -- -- 66
2020-02-29 13:00:00 9.2 31 Oeste 51 Oeste 0 -- -- 85
2020-02-29 12:00:00 10 27 Oeste 45 Oeste 0 -- -- 90
2020-02-29 11:00:00 10 29 Oeste 48 Sudoeste 0.4 -- -- 96
2020-02-29 10:00:00 9.2 28 Sudoeste 45 Sudoeste 0.2 -- -- 95
2020-02-29 09:00:00 8.4 29 Sudoeste 48 Sur 0.6 -- -- 94
2020-02-29 08:00:00 8.1 24 Sudoeste 49 Sudoeste 0 -- -- 91
2020-02-29 07:00:00 8.3 31 Sudoeste 56 Sudoeste 0 -- -- 85
2020-02-29 06:00:00 8.3 23 Sudoeste 40 Sudoeste 0 -- -- 86
2020-02-29 05:00:00 7.6 17 Sudoeste 33 Sudoeste 0 -- -- 86
2020-02-29 04:00:00 7.1 21 Sudoeste 42 Sudoeste 0 -- -- 83
2020-02-29 03:00:00 7.2 26 Sudoeste 42 Sudoeste 0 -- -- 84
2020-02-29 02:00:00 7 25 Oeste 37 Oeste 0 -- -- 84
2020-02-29 01:00:00 7.8 17 Sudoeste 30 Sudoeste 0 -- -- 74
2020-02-29 00:00:00 8.9 17 Sudoeste 30 Sudoeste 0 -- -- 68